createdAt,value
2022-08-04T00:00:17.487Z,17.4
2022-08-04T00:01:14.548Z,17.4
2022-08-04T00:02:15.922Z,17.3
2022-08-04T00:03:16.022Z,17.2
2022-08-04T00:04:17.705Z,17.1
2022-08-04T00:05:15.768Z,17.1
2022-08-04T00:06:15.461Z,16.9
2022-08-04T00:07:16.290Z,16.9
2022-08-04T00:08:12.904Z,17
2022-08-04T00:09:18.186Z,16.9
2022-08-04T00:10:08.010Z,16.9
2022-08-04T00:11:19.700Z,17
2022-08-04T00:12:14.415Z,17
2022-08-04T00:13:13.570Z,16.9
2022-08-04T00:14:18.768Z,17
2022-08-04T00:15:20.655Z,17
2022-08-04T00:16:18.898Z,17
2022-08-04T00:17:15.645Z,17.1
2022-08-04T00:18:13.880Z,17.1
2022-08-04T00:19:13.974Z,17.1
2022-08-04T00:20:16.897Z,17.1
2022-08-04T00:21:18.929Z,17.1
2022-08-04T00:22:16.931Z,17.1
2022-08-04T00:23:16.251Z,16.9
2022-08-04T00:24:17.329Z,16.9
2022-08-04T00:25:16.981Z,16.9
2022-08-04T00:26:15.066Z,17
2022-08-04T00:27:18.761Z,17
2022-08-04T00:28:16.006Z,16.9
2022-08-04T00:29:14.153Z,17
2022-08-04T00:30:10.128Z,17
2022-08-04T00:31:54.482Z,16.9
2022-08-04T00:32:37.906Z,17
2022-08-04T00:33:15.364Z,17
2022-08-04T00:34:13.827Z,17
2022-08-04T00:35:18.295Z,17
2022-08-04T00:36:14.000Z,17
2022-08-04T00:37:15.416Z,17
2022-08-04T00:38:13.700Z,17
2022-08-04T00:39:16.407Z,16.9
2022-08-04T00:40:13.397Z,16.9
2022-08-04T00:41:19.064Z,16.9
2022-08-04T00:42:15.491Z,16.9
2022-08-04T00:43:16.950Z,16.8
2022-08-04T00:44:28.296Z,16.8
2022-08-04T00:45:13.958Z,16.8
2022-08-04T00:46:21.889Z,16.7
2022-08-04T00:47:17.185Z,16.7
2022-08-04T00:48:13.100Z,16.5
2022-08-04T00:49:13.900Z,16.4
2022-08-04T00:50:15.200Z,16.5
2022-08-04T00:51:13.770Z,16.5
2022-08-04T00:52:36.055Z,16.4
2022-08-04T00:53:14.642Z,16.4
2022-08-04T00:54:14.549Z,16.4
2022-08-04T00:55:19.665Z,16.4
2022-08-04T00:56:16.115Z,16.4
2022-08-04T00:57:37.986Z,16.4
2022-08-04T00:58:13.559Z,16.5
2022-08-04T00:59:14.625Z,16.5
2022-08-04T01:00:13.805Z,16.4
2022-08-04T01:01:16.646Z,16.4
2022-08-04T01:02:12.239Z,16.4
2022-08-04T01:03:15.871Z,16.3
2022-08-04T01:04:15.120Z,16.3
2022-08-04T01:05:15.429Z,16.3
2022-08-04T01:06:15.398Z,16.2
2022-08-04T01:07:15.914Z,16.2
2022-08-04T01:08:16.135Z,16.2
2022-08-04T01:09:25.805Z,16.2
2022-08-04T01:10:07.646Z,16.2
2022-08-04T01:11:16.830Z,16.1
2022-08-04T01:12:21.757Z,16
2022-08-04T01:13:19.438Z,16
2022-08-04T01:14:07.446Z,16.1
2022-08-04T01:15:19.571Z,16.2
2022-08-04T01:16:15.647Z,16.2
2022-08-04T01:17:18.899Z,16.3
2022-08-04T01:18:15.804Z,16.3
2022-08-04T01:19:14.340Z,16.3
2022-08-04T01:20:17.764Z,16.4
2022-08-04T01:21:08.623Z,16.4
2022-08-04T01:22:17.291Z,16.3
2022-08-04T01:23:17.826Z,16.4
2022-08-04T01:24:15.924Z,16.4
2022-08-04T01:25:18.793Z,16.1
2022-08-04T01:26:59.775Z,16.1
2022-08-04T01:27:15.861Z,16.1
2022-08-04T01:28:19.709Z,16.1
2022-08-04T01:29:09.422Z,16.1
2022-08-04T01:30:15.043Z,16.1
2022-08-04T01:31:18.068Z,16
2022-08-04T01:32:16.150Z,15.9
2022-08-04T01:33:15.468Z,15.9
2022-08-04T01:34:16.686Z,15.9
2022-08-04T01:35:47.164Z,15.8
2022-08-04T01:36:16.334Z,15.8
2022-08-04T01:37:10.696Z,15.8
2022-08-04T01:38:25.950Z,15.9
2022-08-04T01:39:19.718Z,15.9
2022-08-04T01:40:06.846Z,15.9
2022-08-04T01:41:36.874Z,15.9
2022-08-04T01:42:26.466Z,16
2022-08-04T01:43:10.215Z,16
2022-08-04T01:44:14.441Z,16.2
2022-08-04T01:45:14.611Z,16.2
2022-08-04T01:46:19.978Z,16.2
2022-08-04T01:47:24.447Z,16.2
2022-08-04T01:48:15.727Z,16.2
2022-08-04T01:49:16.750Z,16.2
2022-08-04T01:50:29.999Z,16.2
2022-08-04T01:51:06.941Z,16.2
2022-08-04T01:52:20.693Z,16.2
2022-08-04T01:53:15.388Z,16.3
2022-08-04T01:54:14.161Z,16.3
2022-08-04T01:55:18.250Z,16.1
2022-08-04T01:56:15.583Z,16.2
2022-08-04T01:57:50.383Z,16.1
2022-08-04T01:58:11.642Z,16.1
2022-08-04T01:59:16.140Z,16.2
2022-08-04T02:00:16.118Z,16.2
2022-08-04T02:01:16.459Z,16.2
2022-08-04T02:02:07.696Z,16.3
2022-08-04T02:03:17.068Z,16.3
2022-08-04T02:04:26.020Z,16.3
2022-08-04T02:05:13.429Z,16.2
2022-08-04T02:06:17.090Z,16.2
2022-08-04T02:07:19.681Z,16.2
2022-08-04T02:08:13.828Z,16.1
2022-08-04T02:09:15.830Z,16.1
2022-08-04T02:10:17.474Z,16.1
2022-08-04T02:11:17.160Z,16.1
2022-08-04T02:12:20.568Z,16.1
2022-08-04T02:13:12.941Z,16
2022-08-04T02:14:15.228Z,16
2022-08-04T02:15:17.611Z,15.9
2022-08-04T02:16:16.951Z,15.9
2022-08-04T02:17:17.944Z,16
2022-08-04T02:18:08.662Z,16
2022-08-04T02:19:18.787Z,16.1
2022-08-04T02:20:16.626Z,16.1
2022-08-04T02:21:14.777Z,16.1
2022-08-04T02:22:15.026Z,16
2022-08-04T02:23:16.351Z,16
2022-08-04T02:24:17.510Z,15.9
2022-08-04T02:25:23.828Z,15.8
2022-08-04T02:26:06.505Z,15.8
2022-08-04T02:27:15.601Z,15.8
2022-08-04T02:28:12.542Z,15.7
2022-08-04T02:29:07.508Z,15.7
2022-08-04T02:30:13.348Z,15.7
2022-08-04T02:31:16.927Z,15.7
2022-08-04T02:32:11.856Z,15.8
2022-08-04T02:33:15.867Z,15.8
2022-08-04T02:34:14.471Z,15.8
2022-08-04T02:35:17.190Z,15.8
2022-08-04T02:36:17.125Z,15.7
2022-08-04T02:37:16.194Z,15.6
2022-08-04T02:38:17.324Z,15.6
2022-08-04T02:39:22.942Z,15.7
2022-08-04T02:40:07.064Z,15.7
2022-08-04T02:41:18.933Z,15.6
2022-08-04T02:42:15.811Z,15.6
2022-08-04T02:43:13.832Z,15.6
2022-08-04T02:44:13.596Z,15.6
2022-08-04T02:45:18.132Z,15.6
2022-08-04T02:46:22.298Z,15.6
2022-08-04T02:47:13.095Z,15.6
2022-08-04T02:48:34.844Z,15.6
2022-08-04T02:49:16.164Z,15.6
2022-08-04T02:50:32.567Z,15.6
2022-08-04T02:51:14.754Z,15.6
2022-08-04T02:52:15.069Z,15.6
2022-08-04T02:53:14.272Z,15.5
2022-08-04T02:54:15.703Z,15.6
2022-08-04T02:55:19.199Z,15.6
2022-08-04T02:56:11.053Z,15.6
2022-08-04T02:57:12.212Z,15.6
2022-08-04T02:58:19.288Z,15.6
2022-08-04T02:59:15.623Z,15.6
2022-08-04T03:00:19.786Z,15.6
2022-08-04T03:01:17.504Z,15.6
2022-08-04T03:02:14.940Z,15.6
2022-08-04T03:03:17.186Z,15.6
2022-08-04T03:04:26.388Z,15.6
2022-08-04T03:05:13.699Z,15.4
2022-08-04T03:06:14.826Z,15.4
2022-08-04T03:07:19.950Z,15.4
2022-08-04T03:08:18.727Z,15.4
2022-08-04T03:09:16.729Z,15.4
2022-08-04T03:10:07.419Z,15.4
2022-08-04T03:11:21.826Z,15.4
2022-08-04T03:12:16.263Z,15.3
2022-08-04T03:13:16.217Z,15.3
2022-08-04T03:14:15.934Z,15.3
2022-08-04T03:15:14.272Z,15.3
2022-08-04T03:16:17.024Z,15.3
2022-08-04T03:17:18.977Z,15.3
2022-08-04T03:18:18.121Z,15.3
2022-08-04T03:19:17.237Z,15.3
2022-08-04T03:20:14.245Z,15.3
2022-08-04T03:21:19.030Z,15.3
2022-08-04T03:22:13.994Z,15.3
2022-08-04T03:23:18.216Z,15.3
2022-08-04T03:24:22.089Z,15.3
2022-08-04T03:25:14.315Z,15.4
2022-08-04T03:26:25.249Z,15.3
2022-08-04T03:27:13.763Z,15.3
2022-08-04T03:28:20.716Z,15.3
2022-08-04T03:29:14.537Z,15.2
2022-08-04T03:30:14.666Z,15.2
2022-08-04T03:31:14.832Z,15.2
2022-08-04T03:32:16.040Z,15.2
2022-08-04T03:33:16.970Z,15.2
2022-08-04T03:34:16.656Z,15.1
2022-08-04T03:35:22.479Z,15.1
2022-08-04T03:36:21.384Z,15.1
2022-08-04T03:37:15.931Z,15.2
2022-08-04T03:38:20.241Z,15.2
2022-08-04T03:39:25.511Z,15.2
2022-08-04T03:40:13.127Z,15.2
2022-08-04T03:42:07.193Z,15.3
2022-08-04T03:42:20.149Z,15.3
2022-08-04T03:44:02.770Z,15.3
2022-08-04T03:44:18.786Z,15.3
2022-08-04T03:45:28.119Z,15.2
2022-08-04T03:46:16.257Z,15.2
2022-08-04T03:47:15.545Z,15.1
2022-08-04T03:48:15.195Z,15.1
2022-08-04T03:49:15.336Z,15.3
2022-08-04T03:50:10.424Z,15.3
2022-08-04T03:51:39.710Z,15.2
2022-08-04T03:52:12.159Z,15.3
2022-08-04T03:53:13.797Z,15.3
2022-08-04T03:54:15.266Z,15.3
2022-08-04T03:55:11.661Z,15.1
2022-08-04T03:56:17.549Z,15.1
2022-08-04T03:57:17.760Z,15.1
2022-08-04T03:58:17.314Z,15
2022-08-04T03:59:14.390Z,15
2022-08-04T04:00:16.644Z,15.1
2022-08-04T04:01:15.846Z,15
2022-08-04T04:02:15.123Z,14.9
2022-08-04T04:03:30.610Z,14.9
2022-08-04T04:04:16.245Z,14.9
2022-08-04T04:05:17.076Z,14.9
2022-08-04T04:06:20.110Z,14.9
2022-08-04T04:07:24.495Z,14.9
2022-08-04T04:08:23.089Z,14.9
2022-08-04T04:09:34.003Z,14.9
2022-08-04T04:10:11.437Z,14.9
2022-08-04T04:11:19.732Z,14.8
2022-08-04T04:12:17.051Z,14.8
2022-08-04T04:13:18.267Z,14.8
2022-08-04T04:14:13.887Z,14.9
2022-08-04T04:15:12.859Z,14.9
2022-08-04T04:16:15.365Z,14.9
2022-08-04T04:17:19.521Z,14.9
2022-08-04T04:18:17.901Z,14.9
2022-08-04T04:19:16.069Z,14.9
2022-08-04T04:20:12.609Z,14.9
2022-08-04T04:21:14.002Z,15
2022-08-04T04:22:17.674Z,15
2022-08-04T04:23:16.397Z,15
2022-08-04T04:24:19.221Z,15.1
2022-08-04T04:25:19.077Z,15.1
2022-08-04T04:26:07.479Z,15.1
2022-08-04T04:27:25.625Z,15.1
2022-08-04T04:28:50.414Z,15.1
2022-08-04T04:29:14.858Z,15.1
2022-08-04T04:30:16.162Z,15.1
2022-08-04T04:31:13.500Z,15.1
2022-08-04T04:32:20.056Z,15.1
2022-08-04T04:33:14.583Z,15.1
2022-08-04T04:34:15.747Z,15.2
2022-08-04T04:35:14.511Z,15.2
2022-08-04T04:36:17.047Z,15.3
2022-08-04T04:37:14.005Z,15.3
2022-08-04T04:38:19.309Z,15.4
2022-08-04T04:39:19.516Z,15.4
2022-08-04T04:40:11.740Z,15.4
2022-08-04T04:41:13.766Z,15.6
2022-08-04T04:42:21.717Z,15.6
2022-08-04T04:43:15.588Z,15.6
2022-08-04T04:44:18.135Z,15.6
2022-08-04T04:45:17.950Z,15.6
2022-08-04T04:46:19.511Z,15.6
2022-08-04T04:47:15.973Z,15.7
2022-08-04T04:48:17.282Z,15.8
2022-08-04T04:49:17.013Z,15.8
2022-08-04T04:50:15.897Z,15.8
2022-08-04T04:51:14.590Z,15.8
2022-08-04T04:52:17.781Z,15.9
2022-08-04T04:53:16.645Z,15.9
2022-08-04T04:54:16.666Z,15.9
2022-08-04T04:55:14.783Z,15.9
2022-08-04T04:56:18.045Z,15.9
2022-08-04T04:57:15.642Z,16.1
2022-08-04T04:58:15.372Z,16.1
2022-08-04T04:59:18.068Z,16.1
2022-08-04T05:00:19.103Z,16.3
2022-08-04T05:01:17.733Z,16.3
2022-08-04T05:02:17.742Z,16.3
2022-08-04T05:03:15.519Z,16.3
2022-08-04T05:04:16.572Z,16.3
2022-08-04T05:05:18.698Z,16.3
2022-08-04T05:06:18.832Z,16.4
2022-08-04T05:07:16.253Z,16.4
2022-08-04T05:08:55.812Z,16.5
2022-08-04T05:09:17.465Z,16.6
2022-08-04T05:10:14.981Z,16.6
2022-08-04T05:11:15.819Z,16.8
2022-08-04T05:14:43.493Z,16.8
2022-08-04T05:14:44.137Z,16.8
2022-08-04T05:14:44.268Z,16.9
2022-08-04T05:16:14.484Z,17
2022-08-04T05:17:17.817Z,17.1
2022-08-04T05:18:17.570Z,17.2
2022-08-04T05:19:18.529Z,17.2
2022-08-04T05:20:16.875Z,17.3
2022-08-04T05:21:17.330Z,17.3
2022-08-04T05:22:20.538Z,17.3
2022-08-04T05:23:17.309Z,17.5
2022-08-04T05:24:21.132Z,17.6
2022-08-04T05:25:07.669Z,17.6
2022-08-04T05:26:08.912Z,17.7
2022-08-04T05:27:18.044Z,17.7
2022-08-04T05:28:17.426Z,17.9
2022-08-04T05:29:15.211Z,17.9
2022-08-04T05:30:15.294Z,17.9
2022-08-04T05:31:13.366Z,18.1
2022-08-04T05:32:18.247Z,18.1
2022-08-04T05:33:17.274Z,18.2
2022-08-04T05:34:16.839Z,18.2
2022-08-04T05:35:37.553Z,18.4
2022-08-04T05:36:40.799Z,18.4
2022-08-04T05:37:12.919Z,18.4
2022-08-04T05:38:19.236Z,18.4
2022-08-04T05:39:17.101Z,18.6
2022-08-04T05:40:17.257Z,18.7
2022-08-04T05:41:14.462Z,18.7
2022-08-04T05:42:16.946Z,18.9
2022-08-04T05:43:18.215Z,19
2022-08-04T05:44:19.766Z,19
2022-08-04T05:45:16.089Z,19.1
2022-08-04T05:46:17.916Z,19.2
2022-08-04T05:47:12.876Z,19.2
2022-08-04T05:48:20.398Z,19.3
2022-08-04T05:49:25.358Z,19.5
2022-08-04T05:50:18.784Z,19.8
2022-08-04T05:51:14.332Z,19.8
2022-08-04T05:52:16.146Z,19.8
2022-08-04T05:53:11.752Z,19.6
2022-08-04T05:54:19.788Z,19.6
2022-08-04T05:55:14.761Z,19.6
2022-08-04T05:56:19.173Z,19.6
2022-08-04T05:57:13.790Z,19.9
2022-08-04T05:58:20.519Z,19.8
2022-08-04T05:59:19.432Z,20.1
2022-08-04T06:00:47.748Z,20.1
2022-08-04T06:01:07.553Z,20.4
2022-08-04T06:02:12.041Z,20.3
2022-08-04T06:03:16.824Z,20.3
2022-08-04T06:04:15.761Z,20.6
2022-08-04T06:05:14.736Z,20.8
2022-08-04T06:06:16.503Z,20.5
2022-08-04T06:07:12.960Z,20.5
2022-08-04T06:08:18.199Z,20.6
2022-08-04T06:09:18.159Z,20.7
2022-08-04T06:10:18.360Z,20.7
2022-08-04T06:11:16.526Z,20.7
2022-08-04T06:12:13.353Z,20.8
2022-08-04T06:13:54.177Z,20.8
2022-08-04T06:14:13.745Z,20.8
2022-08-04T06:15:13.728Z,21
2022-08-04T06:16:34.384Z,21
2022-08-04T06:20:22.851Z,21.4
2022-08-04T06:20:24.218Z,21.2
2022-08-04T06:21:20.389Z,21.8
2022-08-04T06:22:13.761Z,21.8
2022-08-04T06:23:15.343Z,22
2022-08-04T06:24:14.315Z,21.9
2022-08-04T06:25:16.805Z,21.9
2022-08-04T06:26:16.484Z,21.9
2022-08-04T06:27:13.921Z,21.9
2022-08-04T06:28:21.699Z,22.1
2022-08-04T06:29:18.047Z,22.3
2022-08-04T06:30:18.536Z,22.3
2022-08-04T06:32:41.388Z,22.2
2022-08-04T06:32:41.910Z,22.2
2022-08-04T06:33:14.599Z,22.2
2022-08-04T06:34:16.363Z,22.2
2022-08-04T06:35:17.077Z,22.2
2022-08-04T06:36:18.359Z,22.3
2022-08-04T06:37:11.389Z,22.3
2022-08-04T06:38:14.639Z,22.4
2022-08-04T06:39:18.151Z,22.6
2022-08-04T06:40:36.297Z,22.6
2022-08-04T06:41:17.572Z,23.1
2022-08-04T06:42:26.327Z,23.1
2022-08-04T06:43:16.412Z,23.1
2022-08-04T06:44:15.611Z,23.1
2022-08-04T06:45:16.993Z,25.1
2022-08-04T06:46:14.218Z,24.8
2022-08-04T06:47:18.183Z,24.8
2022-08-04T06:48:14.893Z,24.1
2022-08-04T06:49:18.620Z,24.5
2022-08-04T06:51:48.687Z,24.5
2022-08-04T06:51:49.147Z,25.6
2022-08-04T06:53:08.859Z,25.8
2022-08-04T06:54:16.803Z,24.7
2022-08-04T06:55:15.846Z,24.7
2022-08-04T06:56:17.181Z,24.7
2022-08-04T06:57:18.935Z,24
2022-08-04T06:58:10.532Z,24
2022-08-04T06:59:27.972Z,24.6
2022-08-04T07:00:07.811Z,24.6
2022-08-04T07:01:16.075Z,26.7
2022-08-04T07:02:17.560Z,27.2
2022-08-04T07:03:22.134Z,26.9
2022-08-04T07:04:06.684Z,26.2
2022-08-04T07:05:17.897Z,26.1
2022-08-04T07:06:19.007Z,26.3
2022-08-04T07:07:12.254Z,25.4
2022-08-04T07:08:18.647Z,25.1
2022-08-04T07:09:10.216Z,25.1
2022-08-04T07:10:26.255Z,24.1
2022-08-04T07:11:18.274Z,24.1
2022-08-04T07:12:16.182Z,23.9
2022-08-04T07:13:15.900Z,23.9
2022-08-04T07:14:14.539Z,24.1
2022-08-04T07:15:21.994Z,24.1
2022-08-04T07:16:06.801Z,24.1
2022-08-04T07:17:18.510Z,24
2022-08-04T07:18:12.591Z,24.1
2022-08-04T07:19:20.609Z,24.1
2022-08-04T07:20:39.735Z,24.3
2022-08-04T07:21:14.447Z,24.3
2022-08-04T07:22:29.506Z,24.4
2022-08-04T07:23:12.934Z,24.4
2022-08-04T07:24:13.841Z,24.4
2022-08-04T07:25:17.624Z,24.3
2022-08-04T07:26:17.364Z,24.3
2022-08-04T07:27:07.479Z,24.5
2022-08-04T07:28:21.409Z,24.5
2022-08-04T07:29:13.048Z,24.6
2022-08-04T07:30:18.829Z,24.7
2022-08-04T07:31:38.263Z,24.7
2022-08-04T07:32:13.702Z,24.7
2022-08-04T07:33:18.222Z,24.8
2022-08-04T07:34:25.319Z,24.9
2022-08-04T07:36:13.786Z,24.9
2022-08-04T07:36:19.071Z,24.9
2022-08-04T07:37:13.821Z,24.9
2022-08-04T07:38:20.397Z,25.1
2022-08-04T07:39:32.151Z,25.1
2022-08-04T07:40:09.852Z,25.1
2022-08-04T07:41:51.022Z,25.3
2022-08-04T07:42:13.833Z,25.3
2022-08-04T07:43:17.296Z,25.1
2022-08-04T07:44:17.541Z,25.2
2022-08-04T07:45:18.756Z,25.3
2022-08-04T07:46:15.726Z,25.4
2022-08-04T07:47:14.978Z,25.5
2022-08-04T07:48:19.299Z,25.5
2022-08-04T07:49:58.257Z,25.5
2022-08-04T07:50:17.726Z,25.4
2022-08-04T07:51:19.411Z,25.4
2022-08-04T07:52:17.096Z,25.6
2022-08-04T07:53:59.836Z,25.6
2022-08-04T07:54:15.530Z,25.6
2022-08-04T07:55:10.349Z,25.6
2022-08-04T07:56:14.179Z,25.8
2022-08-04T07:57:44.896Z,25.8
2022-08-04T07:58:12.808Z,25.8
2022-08-04T07:59:15.384Z,25.8
2022-08-04T08:00:15.997Z,25.9
2022-08-04T08:01:14.750Z,25.9
2022-08-04T08:02:16.203Z,25.9
2022-08-04T08:03:21.763Z,25.9
2022-08-04T08:04:16.669Z,25.9
2022-08-04T08:05:13.083Z,25.9
2022-08-04T08:06:41.238Z,26
2022-08-04T08:07:18.113Z,26.1
2022-08-04T08:08:16.738Z,26.2
2022-08-04T08:09:17.537Z,26.3
2022-08-04T08:10:15.709Z,26.3
2022-08-04T08:11:17.048Z,26.3
2022-08-04T08:12:54.566Z,26.1
2022-08-04T08:13:16.729Z,26.1
2022-08-04T08:15:19.862Z,26.1
2022-08-04T08:16:21.066Z,26.4
2022-08-04T08:17:15.136Z,26.6
2022-08-04T08:18:17.884Z,26.8
2022-08-04T08:19:16.352Z,26.8
2022-08-04T08:20:33.688Z,26.8
2022-08-04T08:21:12.846Z,26.8
2022-08-04T08:22:15.347Z,26.8
2022-08-04T08:23:14.509Z,26.8
2022-08-04T08:24:17.250Z,26.9
2022-08-04T08:25:13.968Z,26.9
2022-08-04T08:26:16.136Z,27.3
2022-08-04T08:27:14.250Z,27
2022-08-04T08:28:15.079Z,27
2022-08-04T08:29:17.047Z,27.2
2022-08-04T08:30:18.509Z,27.2
2022-08-04T08:31:15.043Z,27.4
2022-08-04T08:32:17.138Z,27.4
2022-08-04T08:33:14.246Z,27.4
2022-08-04T08:34:29.619Z,27.4
2022-08-04T08:35:15.163Z,27.6
2022-08-04T08:36:13.407Z,27.5
2022-08-04T08:37:18.324Z,27.5
2022-08-04T08:38:19.749Z,27.7
2022-08-04T08:39:27.157Z,27.7
2022-08-04T08:40:13.275Z,27.8
2022-08-04T08:41:21.552Z,27.8
2022-08-04T08:42:10.102Z,27.8
2022-08-04T08:44:11.018Z,27.9
2022-08-04T08:44:19.009Z,27.9
2022-08-04T08:45:07.752Z,27.9
2022-08-04T08:46:21.527Z,27.8
2022-08-04T08:47:13.707Z,27.9
2022-08-04T08:48:18.164Z,27.9
2022-08-04T08:50:06.660Z,28.1
2022-08-04T08:50:14.838Z,28.1
2022-08-04T08:51:13.990Z,28.1
2022-08-04T08:53:01.366Z,28.1
2022-08-04T08:53:17.595Z,28.4
2022-08-04T08:54:13.601Z,28.4
2022-08-04T08:55:14.761Z,28.3
2022-08-04T08:56:15.275Z,28.3
2022-08-04T08:57:18.531Z,28.3
2022-08-04T08:58:15.523Z,28.4
2022-08-04T08:59:19.364Z,28.6
2022-08-04T09:00:15.206Z,28.6
2022-08-04T09:01:16.467Z,28.6
2022-08-04T09:02:13.433Z,28.4
2022-08-04T09:03:15.181Z,28.4
2022-08-04T09:04:32.573Z,28.4
2022-08-04T09:05:15.450Z,28.4
2022-08-04T09:06:14.438Z,28.1
2022-08-04T09:07:12.836Z,28.1
2022-08-04T09:08:14.156Z,28.4
2022-08-04T09:09:15.753Z,28.5
2022-08-04T09:10:16.443Z,28.8
2022-08-04T09:11:21.067Z,28.9
2022-08-04T09:12:15.074Z,28.9
2022-08-04T09:13:17.270Z,28.9
2022-08-04T09:14:17.260Z,29
2022-08-04T09:15:14.492Z,29.1
2022-08-04T09:16:17.914Z,29.2
2022-08-04T09:17:11.549Z,28.9
2022-08-04T09:18:15.432Z,28.9
2022-08-04T09:19:41.258Z,28.8
2022-08-04T09:20:14.669Z,29.1
2022-08-04T09:21:16.329Z,29.1
2022-08-04T09:22:17.159Z,29.6
2022-08-04T09:23:23.860Z,29.7
2022-08-04T09:24:40.467Z,29.7
2022-08-04T09:25:19.209Z,29.7
2022-08-04T09:26:17.452Z,29.8
2022-08-04T09:27:29.230Z,29.9
2022-08-04T09:28:13.493Z,29.9
2022-08-04T09:29:18.074Z,30
2022-08-04T09:30:15.041Z,30
2022-08-04T09:31:17.943Z,30
2022-08-04T09:32:15.443Z,29.6
2022-08-04T09:33:46.355Z,29.5
2022-08-04T09:34:15.784Z,29.8
2022-08-04T09:35:19.797Z,29.7
2022-08-04T09:36:14.642Z,29.7
2022-08-04T09:37:14.614Z,29.6
2022-08-04T09:38:12.769Z,29.8
2022-08-04T09:39:17.124Z,29.8
2022-08-04T09:40:08.425Z,29.8
2022-08-04T09:41:52.492Z,29.8
2022-08-04T09:42:25.908Z,29.9
2022-08-04T09:43:17.529Z,30
2022-08-04T09:45:06.810Z,30.2
2022-08-04T09:45:44.633Z,30.1
2022-08-04T09:46:15.757Z,30.1
2022-08-04T09:47:18.538Z,29.8
2022-08-04T09:48:16.187Z,29.8
2022-08-04T09:49:14.459Z,29.8
2022-08-04T09:50:13.864Z,29.8
2022-08-04T09:51:19.074Z,29.5
2022-08-04T09:52:07.386Z,29.5
2022-08-04T09:53:14.490Z,29.6
2022-08-04T09:54:34.628Z,29.6
2022-08-04T09:55:17.309Z,29.9
2022-08-04T09:56:13.861Z,29.8
2022-08-04T09:57:21.913Z,29.6
2022-08-04T09:58:19.528Z,29.8
2022-08-04T09:59:06.656Z,29.8
2022-08-04T10:00:19.471Z,29.9
2022-08-04T10:01:18.658Z,30.3
2022-08-04T10:02:18.272Z,30.3
2022-08-04T10:03:21.281Z,30
2022-08-04T10:04:22.124Z,30.4
2022-08-04T10:05:13.910Z,30.2
2022-08-04T10:06:19.192Z,30.2
2022-08-04T10:07:14.355Z,30.2
2022-08-04T10:08:20.962Z,30.5
2022-08-04T10:09:20.751Z,30.6
2022-08-04T10:10:10.931Z,30.6
2022-08-04T10:11:20.336Z,30.6
2022-08-04T10:12:20.432Z,30.9
2022-08-04T10:13:17.094Z,31
2022-08-04T10:14:23.451Z,31
2022-08-04T10:15:07.507Z,31
2022-08-04T10:16:18.290Z,31.1
2022-08-04T10:17:14.559Z,30.8
2022-08-04T10:18:14.263Z,30.8
2022-08-04T10:19:14.284Z,31
2022-08-04T10:20:14.436Z,30.9
2022-08-04T10:21:19.769Z,30.8
2022-08-04T10:23:02.524Z,30.8
2022-08-04T10:23:22.943Z,30.8
2022-08-04T10:24:16.617Z,30.5
2022-08-04T10:26:10.865Z,30.7
2022-08-04T10:26:13.665Z,31.1
2022-08-04T10:27:21.749Z,30.8
2022-08-04T10:28:17.740Z,30.8
2022-08-04T10:29:18.401Z,30.8
2022-08-04T10:30:15.008Z,31.2
2022-08-04T10:31:17.001Z,31.2
2022-08-04T10:32:14.725Z,31.4
2022-08-04T10:33:19.384Z,31.4
2022-08-04T10:34:14.216Z,31.4
2022-08-04T10:35:15.686Z,31.4
2022-08-04T10:36:14.155Z,30.7
2022-08-04T10:37:16.493Z,30.6
2022-08-04T10:38:15.016Z,30.7
2022-08-04T10:39:48.089Z,31.4
2022-08-04T10:40:14.528Z,31.4
2022-08-04T10:41:20.586Z,31.2
2022-08-04T10:42:07.020Z,31.2
2022-08-04T10:44:28.014Z,31.5
2022-08-04T10:45:08.203Z,31.5
2022-08-04T10:46:13.762Z,31.8
2022-08-04T10:47:21.862Z,31.8
2022-08-04T10:48:16.601Z,31.8
2022-08-04T10:49:15.590Z,32.3
2022-08-04T10:50:17.300Z,32.3
2022-08-04T10:51:13.844Z,32.5
2022-08-04T10:52:19.146Z,32.5
2022-08-04T10:53:13.729Z,32.5
2022-08-04T10:54:22.628Z,31.4
2022-08-04T10:55:22.500Z,31.7
2022-08-04T10:56:16.420Z,31.7
2022-08-04T10:57:22.777Z,31.7
2022-08-04T10:58:08.914Z,31.8
2022-08-04T10:59:23.773Z,31.6
2022-08-04T11:00:10.611Z,31.6
2022-08-04T11:02:07.411Z,31.5
2022-08-04T11:02:18.791Z,31.5
2022-08-04T11:03:18.444Z,31.6
2022-08-04T11:04:29.179Z,31.4
2022-08-04T11:05:15.033Z,31.5
2022-08-04T11:06:16.679Z,31.2
2022-08-04T11:07:16.059Z,31.2
2022-08-04T11:08:22.627Z,31.2
2022-08-04T11:09:19.225Z,31.6
2022-08-04T11:10:13.626Z,31.8
2022-08-04T11:11:18.784Z,31.8
2022-08-04T11:12:13.095Z,32
2022-08-04T11:13:33.654Z,32
2022-08-04T11:14:11.996Z,32.1
2022-08-04T11:15:19.360Z,32.3
2022-08-04T11:16:13.331Z,31.9
2022-08-04T11:17:18.852Z,31.7
2022-08-04T11:18:21.281Z,31.8
2022-08-04T11:19:15.666Z,31.8
2022-08-04T11:20:38.878Z,32.1
2022-08-04T11:21:17.500Z,31.9
2022-08-04T11:22:17.131Z,31.9
2022-08-04T11:23:13.265Z,31.9
2022-08-04T11:24:12.845Z,31.9
2022-08-04T11:25:16.830Z,32.3
2022-08-04T11:26:17.995Z,32.3
2022-08-04T11:27:15.978Z,32.3
2022-08-04T11:28:20.246Z,32.8
2022-08-04T11:29:13.912Z,33.1
2022-08-04T11:30:18.042Z,33.1
2022-08-04T11:31:13.312Z,33.1
2022-08-04T11:32:18.019Z,33.1
2022-08-04T11:33:19.167Z,33.1
2022-08-04T11:34:16.515Z,32.9
2022-08-04T11:35:17.344Z,32.9
2022-08-04T11:36:13.341Z,32.7
2022-08-04T11:37:18.347Z,32.8
2022-08-04T11:38:19.523Z,32.8
2022-08-04T11:39:12.930Z,32.8
2022-08-04T11:40:18.520Z,32.8
2022-08-04T11:41:14.753Z,32.7
2022-08-04T11:42:14.970Z,32.7
2022-08-04T11:43:14.824Z,32.7
2022-08-04T11:44:17.031Z,32.6
2022-08-04T11:45:16.402Z,32.6
2022-08-04T11:46:14.859Z,32.6
2022-08-04T11:47:13.143Z,32.7
2022-08-04T11:48:17.712Z,32.7
2022-08-04T11:49:16.354Z,32.7
2022-08-04T11:50:13.878Z,32.8
2022-08-04T11:51:17.365Z,33.1
2022-08-04T11:52:19.861Z,32.9
2022-08-04T11:53:13.882Z,32.9
2022-08-04T11:54:14.164Z,32.8
2022-08-04T11:55:15.523Z,32.8
2022-08-04T11:56:36.353Z,32.8
2022-08-04T11:57:14.753Z,32.4
2022-08-04T11:58:13.807Z,32.7
2022-08-04T11:59:14.471Z,32.7
2022-08-04T12:00:15.635Z,32.9
2022-08-04T12:01:22.057Z,32.4
2022-08-04T12:02:21.093Z,32.6
2022-08-04T12:03:17.693Z,32.6
2022-08-04T12:04:15.477Z,32.8
2022-08-04T12:05:40.145Z,32.9
2022-08-04T12:06:14.969Z,32.9
2022-08-04T12:07:43.862Z,32.9
2022-08-04T12:08:17.241Z,32.9
2022-08-04T12:09:19.401Z,32.8
2022-08-04T12:10:17.540Z,32.8
2022-08-04T12:11:16.374Z,32.4
2022-08-04T12:12:13.182Z,32.4
2022-08-04T12:13:14.773Z,32.6
2022-08-04T12:14:15.436Z,32.6
2022-08-04T12:15:19.537Z,32.6
2022-08-04T12:16:23.111Z,32.6
2022-08-04T12:17:20.327Z,32.8
2022-08-04T12:18:18.030Z,32.8
2022-08-04T12:19:19.537Z,32.8
2022-08-04T12:20:43.845Z,32.9
2022-08-04T12:21:16.975Z,32.9
2022-08-04T12:22:13.760Z,32.9
2022-08-04T12:23:16.807Z,32.9
2022-08-04T12:24:16.275Z,32.4
2022-08-04T12:25:15.006Z,32.8
2022-08-04T12:26:17.546Z,32.8
2022-08-04T12:27:19.022Z,32.8
2022-08-04T12:28:13.299Z,32.8
2022-08-04T12:29:19.657Z,32.9
2022-08-04T12:31:11.722Z,32.9
2022-08-04T12:31:16.846Z,32.1
2022-08-04T12:32:14.255Z,32.1
2022-08-04T12:33:21.765Z,32.1
2022-08-04T12:34:13.939Z,32.5
2022-08-04T12:35:15.205Z,32.5
2022-08-04T12:36:25.151Z,32.5
2022-08-04T12:37:24.415Z,32.8
2022-08-04T12:38:14.807Z,32.6
2022-08-04T12:39:16.650Z,32.6
2022-08-04T12:40:34.671Z,32.5
2022-08-04T12:41:13.710Z,32.4
2022-08-04T12:42:21.257Z,32.4
2022-08-04T12:43:16.829Z,33
2022-08-04T12:44:42.468Z,33
2022-08-04T12:45:13.085Z,33
2022-08-04T12:46:16.446Z,33.2
2022-08-04T12:47:31.825Z,33.1
2022-08-04T12:48:21.226Z,33.1
2022-08-04T12:49:14.034Z,33.2
2022-08-04T12:50:15.642Z,33.2
2022-08-04T12:52:11.757Z,33.2
2022-08-04T12:52:13.852Z,33.1
2022-08-04T12:53:31.677Z,33.3
2022-08-04T12:54:11.361Z,33.3
2022-08-04T12:55:17.076Z,33.4
2022-08-04T12:56:17.263Z,33.4
2022-08-04T12:57:14.340Z,33.4
2022-08-04T12:58:47.918Z,33.5
2022-08-04T12:59:17.504Z,33.4
2022-08-04T13:00:16.333Z,33.4
2022-08-04T13:02:14.963Z,33.4
2022-08-04T13:02:16.467Z,33.6
2022-08-04T13:03:14.959Z,33.6
2022-08-04T13:04:12.362Z,33
2022-08-04T13:05:21.352Z,33
2022-08-04T13:06:16.365Z,33.3
2022-08-04T13:07:16.088Z,33.3
2022-08-04T13:08:15.103Z,33.3
2022-08-04T13:09:21.519Z,33.9
2022-08-04T13:10:20.376Z,33.9
2022-08-04T13:11:15.139Z,33.9
2022-08-04T13:12:14.806Z,33.9
2022-08-04T13:13:13.639Z,33.9
2022-08-04T13:14:31.223Z,33.9
2022-08-04T13:15:22.510Z,33.8
2022-08-04T13:16:17.303Z,33.5
2022-08-04T13:17:16.658Z,33.5
2022-08-04T13:18:19.805Z,33.5
2022-08-04T13:19:13.483Z,33.1
2022-08-04T13:20:18.272Z,33.1
2022-08-04T13:22:02.475Z,33.1
2022-08-04T13:22:20.951Z,33.1
2022-08-04T13:23:14.078Z,33
2022-08-04T13:24:37.657Z,33.1
2022-08-04T13:26:56.067Z,33.2
2022-08-04T13:27:03.461Z,33.4
2022-08-04T13:28:26.101Z,33.6
2022-08-04T13:29:21.024Z,33.6